Terminal Aerodrome Forecast
Issued by NWS

Home | Current Version | Previous Version | Text Only | Print | Product List | Glossary On
Versions: 1 2 3 4 5 6 7 8 9 10 11 12 13 14 15 16 17 18 19 20 21 22 23 24
000
FTUS43 KMQT 222300
TAFSAW
TAF
KSAW 222322Z 2300/2324 06005KT P6SM VCSH SCT012 OVC020
     FM230400 08004KT P6SM OVC012
     FM230800 06004KT 3SM BR OVC005
     FM231500 11006KT P6SM OVC015
     FM231900 09008KT P6SM BKN035
      AMD LTD TO CLD VIS AND WIND 2302/2310=

USA.gov is the U.S. government's official web portal to all federal, state and local government web resources and services.